createdAt,value
2023-04-21T00:01:57.141Z,121.75
2023-04-21T00:04:27.676Z,118.57
2023-04-21T00:06:56.384Z,119.53
2023-04-21T00:09:23.262Z,112.40
2023-04-21T00:12:00.702Z,112.97
2023-04-21T00:14:27.430Z,125.25
2023-04-21T00:16:54.061Z,118.90
2023-04-21T00:19:21.374Z,117.93
2023-04-21T00:21:48.092Z,124.68
2023-04-21T00:24:15.523Z,119.72
2023-04-21T00:26:42.517Z,122.80
2023-04-21T00:29:09.067Z,118.40
2023-04-21T00:31:36.261Z,125.35
2023-04-21T00:34:04.901Z,117.00
2023-04-21T00:36:32.121Z,122.22
2023-04-21T00:38:58.687Z,126.85
2023-04-21T00:41:26.044Z,127.85
2023-04-21T00:44:13.012Z,129.20
2023-04-21T00:46:39.800Z,121.45
2023-04-21T00:49:07.748Z,134.43
2023-04-21T00:51:35.445Z,123.05
2023-04-21T00:54:04.788Z,128.10
2023-04-21T00:56:34.062Z,127.72
2023-04-21T00:59:50.021Z,135.30
2023-04-21T01:02:20.963Z,135.13
2023-04-21T01:04:49.890Z,123.07
2023-04-21T01:07:16.970Z,132.38
2023-04-21T01:09:43.667Z,128.77
2023-04-21T01:12:11.594Z,135.88
2023-04-21T01:14:56.077Z,141.95
2023-04-21T01:17:31.291Z,130.80
2023-04-21T01:19:58.307Z,126.65
2023-04-21T01:22:32.115Z,133.25
2023-04-21T01:24:58.739Z,131.35
2023-04-21T01:27:27.079Z,131.23
2023-04-21T01:29:56.107Z,129.15
2023-04-21T01:32:25.853Z,137.88
2023-04-21T01:34:53.116Z,130.30
2023-04-21T01:37:22.389Z,134.55
2023-04-21T01:42:19.335Z,126.00
2023-04-21T01:44:47.129Z,131.18
2023-04-21T01:47:17.397Z,144.57
2023-04-21T01:49:44.020Z,127.70
2023-04-21T01:52:12.505Z,137.40
2023-04-21T01:54:39.457Z,134.23
2023-04-21T01:57:07.413Z,131.70
2023-04-21T01:59:34.432Z,126.03
2023-04-21T02:02:02.997Z,131.35
2023-04-21T02:04:32.383Z,136.05
2023-04-21T02:07:00.319Z,134.38
2023-04-21T02:09:27.139Z,139.20
2023-04-21T02:11:55.542Z,134.68
2023-04-21T02:14:22.181Z,137.32
2023-04-21T02:16:48.911Z,137.90
2023-04-21T02:19:21.458Z,137.85
2023-04-21T02:21:48.698Z,129.45
2023-04-21T02:24:15.323Z,135.88
2023-04-21T02:26:42.161Z,125.32
2023-04-21T02:29:11.506Z,137.52
2023-04-21T02:31:50.113Z,136.32
2023-04-21T02:34:24.503Z,136.18
2023-04-21T02:36:51.446Z,134.13
2023-04-21T02:39:19.489Z,134.95
2023-04-21T02:41:46.411Z,132.27
2023-04-21T02:44:12.970Z,135.48
2023-04-21T02:46:42.862Z,135.68
2023-04-21T02:49:10.510Z,135.10
2023-04-21T02:51:37.560Z,130.00
2023-04-21T02:54:04.261Z,129.35
2023-04-21T02:56:32.018Z,136.57
2023-04-21T02:58:59.063Z,141.05
2023-04-21T03:01:25.721Z,139.27
2023-04-21T03:03:52.554Z,136.45
2023-04-21T03:06:19.247Z,148.35
2023-04-21T03:08:45.871Z,138.15
2023-04-21T03:11:12.398Z,148.48
2023-04-21T03:13:39.042Z,146.13
2023-04-21T03:16:06.047Z,133.68
2023-04-21T03:18:35.900Z,136.10
2023-04-21T03:21:02.622Z,142.23
2023-04-21T03:23:29.258Z,137.88
2023-04-21T03:25:55.847Z,149.30
2023-04-21T03:28:22.386Z,148.63
2023-04-21T03:30:49.047Z,131.93
2023-04-21T03:33:16.034Z,146.35
2023-04-21T03:35:42.843Z,169.60
2023-04-21T03:38:09.471Z,151.38
2023-04-21T03:40:36.038Z,142.15
2023-04-21T03:43:03.476Z,151.45
2023-04-21T03:45:30.018Z,156.13
2023-04-21T03:47:58.997Z,150.40
2023-04-21T03:50:25.685Z,153.00
2023-04-21T03:52:52.319Z,141.15
2023-04-21T03:55:18.953Z,145.18
2023-04-21T03:57:45.521Z,161.35
2023-04-21T04:00:12.710Z,171.65
2023-04-21T04:02:39.883Z,149.15
2023-04-21T04:05:07.468Z,166.48
2023-04-21T04:07:34.696Z,150.07
2023-04-21T04:10:01.735Z,158.48
2023-04-21T04:12:28.454Z,170.50
2023-04-21T04:14:55.157Z,178.38
2023-04-21T04:17:21.731Z,189.57
2023-04-21T04:19:48.342Z,200.95
2023-04-21T04:22:14.892Z,161.18
2023-04-21T04:24:41.456Z,175.32
2023-04-21T04:27:09.648Z,219.82
2023-04-21T04:29:36.273Z,181.90
2023-04-21T04:32:04.149Z,149.55
2023-04-21T04:34:30.773Z,190.27
2023-04-21T04:37:08.437Z,168.77
2023-04-21T04:39:36.988Z,180.25
2023-04-21T04:42:03.700Z,149.43
2023-04-21T04:44:30.387Z,199.88
2023-04-21T04:46:57.171Z,204.43
2023-04-21T04:49:24.214Z,192.20
2023-04-21T04:51:51.008Z,185.15
2023-04-21T04:54:17.875Z,194.02
2023-04-21T04:56:44.624Z,147.00
2023-04-21T04:59:11.270Z,192.27
2023-04-21T05:01:38.203Z,167.50
2023-04-21T05:04:05.278Z,174.82
2023-04-21T05:06:32.372Z,232.63
2023-04-21T05:08:58.886Z,191.05
2023-04-21T05:11:25.616Z,184.68
2023-04-21T05:13:52.464Z,186.57
2023-04-21T05:16:18.987Z,155.85
2023-04-21T05:18:45.662Z,173.15
2023-04-21T05:21:12.303Z,159.60
2023-04-21T05:23:42.526Z,174.65
2023-04-21T05:26:09.043Z,140.18
2023-04-21T05:28:36.248Z,151.80
2023-04-21T05:31:02.796Z,141.05
2023-04-21T05:33:31.705Z,132.88
2023-04-21T05:35:58.715Z,123.82
2023-04-21T05:38:27.222Z,123.93
2023-04-21T05:40:57.144Z,122.20
2023-04-21T05:43:23.904Z,116.85
2023-04-21T05:45:51.022Z,110.18
2023-04-21T05:48:17.950Z,114.45
2023-04-21T05:50:44.714Z,117.00
2023-04-21T05:53:11.437Z,114.53
2023-04-21T05:55:37.911Z,105.90
2023-04-21T05:58:05.365Z,108.82
2023-04-21T06:00:33.414Z,121.13
2023-04-21T06:03:00.156Z,110.07
2023-04-21T06:05:26.873Z,123.93
2023-04-21T06:07:53.503Z,106.25
2023-04-21T06:10:27.200Z,113.18
2023-04-21T06:12:53.738Z,116.15
2023-04-21T06:15:20.281Z,120.05
2023-04-21T06:17:46.840Z,108.47
2023-04-21T06:20:13.508Z,111.40
2023-04-21T06:22:40.301Z,111.20
2023-04-21T06:25:07.362Z,120.78
2023-04-21T06:27:33.934Z,103.93
2023-04-21T06:30:03.075Z,108.43
2023-04-21T06:32:29.643Z,101.97
2023-04-21T06:34:56.334Z,93.22
2023-04-21T06:37:23.074Z,101.30
2023-04-21T06:39:49.777Z,93.43
2023-04-21T06:42:16.382Z,93.18
2023-04-21T06:44:42.950Z,99.35
2023-04-21T06:47:09.662Z,88.18
2023-04-21T06:49:37.352Z,83.30
2023-04-21T06:52:04.461Z,77.43
2023-04-21T06:54:31.230Z,79.13
2023-04-21T06:57:03.891Z,82.05
2023-04-21T06:59:30.512Z,81.53
2023-04-21T07:01:57.275Z,78.13
2023-04-21T07:04:24.238Z,75.13
2023-04-21T07:06:50.829Z,67.57
2023-04-21T07:09:18.399Z,73.28
2023-04-21T07:11:54.282Z,64.03
2023-04-21T07:14:29.287Z,64.70
2023-04-21T07:16:57.179Z,62.67
2023-04-21T07:19:23.899Z,65.45
2023-04-21T07:21:50.500Z,59.72
2023-04-21T07:24:17.037Z,57.00
2023-04-21T07:26:43.799Z,62.65
2023-04-21T07:29:10.304Z,58.85
2023-04-21T07:31:36.986Z,60.17
2023-04-21T07:34:03.667Z,57.05
2023-04-21T07:36:31.589Z,56.80
2023-04-21T07:38:58.697Z,54.13
2023-04-21T07:41:25.621Z,52.83
2023-04-21T07:43:53.852Z,51.10
2023-04-21T07:46:21.665Z,53.03
2023-04-21T07:48:49.163Z,53.15
2023-04-21T07:51:17.824Z,52.10
2023-04-21T07:53:44.437Z,54.33
2023-04-21T07:56:12.935Z,51.33
2023-04-21T07:58:53.727Z,52.97
2023-04-21T08:01:20.971Z,49.25
2023-04-21T08:03:47.950Z,47.22
2023-04-21T08:06:15.054Z,45.58
2023-04-21T08:08:41.786Z,48.05
2023-04-21T08:11:09.762Z,49.30
2023-04-21T08:13:37.518Z,49.75
2023-04-21T08:16:04.383Z,46.00
2023-04-21T08:18:31.307Z,50.35
2023-04-21T08:20:58.029Z,48.72
2023-04-21T08:23:24.871Z,47.83
2023-04-21T08:25:51.486Z,46.90
2023-04-21T08:28:18.157Z,48.35
2023-04-21T08:30:44.663Z,48.60
2023-04-21T08:33:13.675Z,46.85
2023-04-21T08:35:55.026Z,48.25
2023-04-21T08:38:28.395Z,47.53
2023-04-21T08:40:56.184Z,49.47
2023-04-21T08:43:22.766Z,46.38
2023-04-21T08:45:50.372Z,49.20
2023-04-21T08:48:20.109Z,49.17
2023-04-21T08:50:48.997Z,48.65
2023-04-21T08:53:16.787Z,45.58
2023-04-21T08:55:44.084Z,48.70
2023-04-21T08:58:11.898Z,50.22
2023-04-21T09:00:41.344Z,49.85
2023-04-21T09:03:19.483Z,49.08
2023-04-21T09:06:02.856Z,48.10
2023-04-21T09:08:30.363Z,45.33
2023-04-21T09:10:58.118Z,48.90
2023-04-21T09:13:32.451Z,46.00
2023-04-21T09:16:02.380Z,46.00
2023-04-21T09:18:36.816Z,45.35
2023-04-21T09:21:09.095Z,42.17
2023-04-21T09:23:45.682Z,42.90
2023-04-21T09:26:13.186Z,38.75
2023-04-21T09:28:50.153Z,45.33
2023-04-21T09:31:20.230Z,47.33
2023-04-21T09:36:22.974Z,39.05
2023-04-21T09:41:33.351Z,38.70
2023-04-21T09:44:04.406Z,34.90
2023-04-21T09:49:03.665Z,34.90
2023-04-21T09:51:55.579Z,34.50
2023-04-21T09:56:54.216Z,33.70
2023-04-21T09:59:25.735Z,31.70
2023-04-21T10:01:54.037Z,34.05
2023-04-21T10:04:22.914Z,33.28
2023-04-21T10:06:50.233Z,46.25
2023-04-21T10:09:18.586Z,36.25
2023-04-21T10:11:45.663Z,31.60
2023-04-21T10:14:13.062Z,34.20
2023-04-21T10:16:39.746Z,37.55
2023-04-21T10:19:28.159Z,31.92
2023-04-21T10:21:58.107Z,33.83
2023-04-21T10:24:29.792Z,35.65
2023-04-21T10:27:02.317Z,33.45
2023-04-21T10:29:40.287Z,37.15
2023-04-21T10:32:31.632Z,33.55
2023-04-21T10:34:58.304Z,35.17
2023-04-21T10:37:24.874Z,34.72
2023-04-21T10:39:53.716Z,34.47
2023-04-21T10:42:25.803Z,40.58
2023-04-21T10:44:58.562Z,34.80
2023-04-21T10:47:29.805Z,40.85
2023-04-21T10:52:33.634Z,36.50
2023-04-21T10:55:04.004Z,38.17
2023-04-21T10:57:35.203Z,32.83
2023-04-21T11:00:07.327Z,34.05
2023-04-21T11:02:38.132Z,33.00
2023-04-21T11:05:07.526Z,34.67
2023-04-21T11:07:34.412Z,34.55
2023-04-21T11:10:10.329Z,31.45
2023-04-21T11:12:39.180Z,36.47
2023-04-21T11:15:08.127Z,33.50
2023-04-21T11:17:35.813Z,33.63
2023-04-21T11:20:04.792Z,31.60
2023-04-21T11:22:31.395Z,27.90
2023-04-21T11:24:58.503Z,31.05
2023-04-21T11:27:29.839Z,30.60
2023-04-21T11:29:57.373Z,28.80
2023-04-21T11:32:24.424Z,38.97
2023-04-21T11:34:50.978Z,28.00
2023-04-21T11:37:25.184Z,31.88
2023-04-21T11:39:57.452Z,28.42
2023-04-21T11:42:24.153Z,27.95
2023-04-21T11:44:50.774Z,40.20
2023-04-21T11:47:28.521Z,32.90
2023-04-21T11:50:02.615Z,31.13
2023-04-21T11:53:02.158Z,34.53
2023-04-21T11:55:28.795Z,32.97
2023-04-21T11:57:57.543Z,33.80
2023-04-21T12:00:24.299Z,33.33
2023-04-21T12:02:57.152Z,33.42
2023-04-21T12:05:24.217Z,32.70
2023-04-21T12:07:52.290Z,32.47
2023-04-21T12:10:20.821Z,34.47
2023-04-21T12:12:48.155Z,38.55
2023-04-21T12:15:20.258Z,35.15
2023-04-21T12:17:48.461Z,38.08
2023-04-21T12:20:19.833Z,41.53
2023-04-21T12:25:14.597Z,35.90
2023-04-21T12:27:52.963Z,35.00
2023-04-21T12:30:20.736Z,27.25
2023-04-21T12:32:48.032Z,30.70
2023-04-21T12:35:14.694Z,29.77
2023-04-21T12:37:41.754Z,24.73
2023-04-21T12:40:09.031Z,25.48
2023-04-21T12:42:37.786Z,23.95
2023-04-21T12:45:05.921Z,24.05
2023-04-21T12:47:32.612Z,27.17
2023-04-21T12:49:59.278Z,26.73
2023-04-21T12:52:26.824Z,24.08
2023-04-21T12:54:53.433Z,28.65
2023-04-21T12:57:21.079Z,25.05
2023-04-21T12:59:48.308Z,29.63
2023-04-21T13:02:15.603Z,31.15
2023-04-21T13:04:42.671Z,25.33
2023-04-21T13:07:09.775Z,28.75
2023-04-21T13:09:36.455Z,23.42
2023-04-21T13:12:03.255Z,29.60
2023-04-21T13:14:30.190Z,23.40
2023-04-21T13:16:57.338Z,20.52
2023-04-21T13:19:24.425Z,18.90
2023-04-21T13:21:53.988Z,19.35
2023-04-21T13:24:21.548Z,18.27
2023-04-21T13:26:48.495Z,16.75
2023-04-21T13:29:15.107Z,18.60
2023-04-21T13:31:41.683Z,16.35
2023-04-21T13:34:08.270Z,18.48
2023-04-21T13:36:35.365Z,16.38
2023-04-21T13:39:02.219Z,17.08
2023-04-21T13:41:34.930Z,16.38
2023-04-21T13:44:04.522Z,17.15
2023-04-21T13:46:32.363Z,18.42
2023-04-21T13:48:59.593Z,16.67
2023-04-21T13:51:26.573Z,16.42
2023-04-21T13:53:53.322Z,19.38
2023-04-21T13:56:20.333Z,19.15
2023-04-21T13:58:46.976Z,16.98
2023-04-21T14:01:14.305Z,16.08
2023-04-21T14:03:41.585Z,16.65
2023-04-21T14:06:08.968Z,17.85
2023-04-21T14:08:35.853Z,14.13
2023-04-21T14:11:03.527Z,12.43
2023-04-21T14:13:37.480Z,17.17
2023-04-21T14:16:07.143Z,16.20
2023-04-21T14:18:33.952Z,12.98
2023-04-21T14:21:00.630Z,11.90
2023-04-21T14:23:27.265Z,15.73
2023-04-21T14:25:55.039Z,11.40
2023-04-21T14:28:21.957Z,10.43
2023-04-21T14:30:48.652Z,9.77
2023-04-21T14:33:15.318Z,9.93
2023-04-21T14:35:42.067Z,9.80
2023-04-21T14:38:08.769Z,10.85
2023-04-21T14:40:35.377Z,11.98
2023-04-21T14:43:01.918Z,11.10
2023-04-21T14:45:28.673Z,11.43
2023-04-21T14:47:55.409Z,9.15
2023-04-21T14:50:22.780Z,10.95
2023-04-21T14:52:49.817Z,9.57
2023-04-21T14:55:17.639Z,10.57
2023-04-21T14:57:44.335Z,10.98
2023-04-21T15:00:11.786Z,9.82
2023-04-21T15:02:40.216Z,9.23
2023-04-21T15:05:08.584Z,8.43
2023-04-21T15:07:35.851Z,10.68
2023-04-21T15:10:03.147Z,14.73
2023-04-21T15:12:30.023Z,10.57
2023-04-21T15:14:56.787Z,10.35
2023-04-21T15:17:23.589Z,9.38
2023-04-21T15:19:50.403Z,9.02
2023-04-21T15:22:17.423Z,10.38
2023-04-21T15:24:44.053Z,9.45
2023-04-21T15:27:10.791Z,11.70
2023-04-21T15:29:37.676Z,7.45
2023-04-21T15:32:05.334Z,8.63
2023-04-21T15:34:32.104Z,9.52
2023-04-21T15:36:58.701Z,7.78
2023-04-21T15:39:25.723Z,17.60
2023-04-21T15:41:53.281Z,19.55
2023-04-21T15:44:19.998Z,11.95
2023-04-21T15:46:46.859Z,8.77
2023-04-21T15:49:13.645Z,9.82
2023-04-21T15:51:40.709Z,9.23
2023-04-21T15:54:07.296Z,10.93
2023-04-21T15:56:34.405Z,7.88
2023-04-21T15:59:01.064Z,7.65
2023-04-21T16:01:27.716Z,9.80
2023-04-21T16:03:54.558Z,10.10
2023-04-21T16:06:21.399Z,11.65
2023-04-21T16:08:48.192Z,9.73
2023-04-21T16:11:14.716Z,7.50
2023-04-21T16:13:41.313Z,9.80
2023-04-21T16:16:08.824Z,10.27
2023-04-21T16:18:35.522Z,9.23
2023-04-21T16:21:02.515Z,9.57
2023-04-21T16:23:29.421Z,11.15
2023-04-21T16:25:56.044Z,8.38
2023-04-21T16:28:22.755Z,8.15
2023-04-21T16:30:50.005Z,7.18
2023-04-21T16:33:16.718Z,7.38
2023-04-21T16:35:43.355Z,7.22
2023-04-21T16:38:10.169Z,3.65
2023-04-21T16:40:36.679Z,4.80
2023-04-21T16:43:03.437Z,5.55
2023-04-21T16:45:30.300Z,4.07
2023-04-21T16:48:01.783Z,4.65
2023-04-21T16:50:29.200Z,5.05
2023-04-21T16:52:55.849Z,4.18
2023-04-21T16:55:22.514Z,4.50
2023-04-21T16:57:49.117Z,3.80
2023-04-21T17:00:16.614Z,6.20
2023-04-21T17:02:43.369Z,4.60
2023-04-21T17:05:12.112Z,3.88
2023-04-21T17:07:39.675Z,3.45
2023-04-21T17:10:07.301Z,3.03
2023-04-21T17:12:33.964Z,7.55
2023-04-21T17:15:03.134Z,11.40
2023-04-21T17:17:46.955Z,4.85
2023-04-21T17:20:14.503Z,5.43
2023-04-21T17:22:41.780Z,6.57
2023-04-21T17:25:09.941Z,5.72
2023-04-21T17:27:38.699Z,9.30
2023-04-21T17:30:06.094Z,9.25
2023-04-21T17:32:33.953Z,2.83
2023-04-21T17:35:03.371Z,4.43
2023-04-21T17:37:30.340Z,4.40
2023-04-21T17:39:59.139Z,4.80
2023-04-21T17:42:29.146Z,12.98
2023-04-21T17:44:55.759Z,7.93
2023-04-21T17:47:22.339Z,3.30
2023-04-21T17:52:43.440Z,3.55
2023-04-21T17:55:10.407Z,4.32
2023-04-21T17:57:36.959Z,6.53
2023-04-21T18:00:07.272Z,5.75
2023-04-21T18:02:34.188Z,6.45
2023-04-21T18:05:01.734Z,4.85
2023-04-21T18:07:28.307Z,4.05
2023-04-21T18:09:54.845Z,4.65
2023-04-21T18:12:21.489Z,4.97
2023-04-21T18:14:48.091Z,4.65
2023-04-21T18:17:16.784Z,5.65
2023-04-21T18:19:44.155Z,5.70
2023-04-21T18:22:11.050Z,4.57
2023-04-21T18:24:37.842Z,4.55
2023-04-21T18:27:04.776Z,10.02
2023-04-21T18:29:31.382Z,4.53
2023-04-21T18:31:58.037Z,4.07
2023-04-21T18:34:24.723Z,3.95
2023-04-21T18:36:51.353Z,3.90
2023-04-21T18:39:17.900Z,5.88
2023-04-21T18:41:48.172Z,8.70
2023-04-21T18:44:16.195Z,9.95
2023-04-21T18:46:42.873Z,7.97
2023-04-21T18:49:09.467Z,7.57
2023-04-21T18:51:36.355Z,5.43
2023-04-21T18:54:04.789Z,6.43
2023-04-21T18:56:32.690Z,6.95
2023-04-21T18:58:59.629Z,5.38
2023-04-21T19:01:26.734Z,5.63
2023-04-21T19:03:53.691Z,6.25
2023-04-21T19:06:20.703Z,5.97
2023-04-21T19:08:47.325Z,9.60
2023-04-21T19:11:15.811Z,10.57
2023-04-21T19:13:42.627Z,10.75
2023-04-21T19:16:12.227Z,8.63
2023-04-21T19:18:38.996Z,8.52
2023-04-21T19:21:06.593Z,9.57
2023-04-21T19:23:33.406Z,6.32
2023-04-21T19:26:04.563Z,5.07
2023-04-21T19:28:35.786Z,8.80
2023-04-21T19:33:29.630Z,3.63
2023-04-21T19:35:57.577Z,5.32
2023-04-21T19:38:24.742Z,7.22
2023-04-21T19:40:52.195Z,2.75
2023-04-21T19:43:20.811Z,6.40
2023-04-21T19:45:48.198Z,6.20
2023-04-21T19:48:15.168Z,7.40
2023-04-21T19:50:42.491Z,5.88
2023-04-21T19:53:14.462Z,4.35
2023-04-21T19:55:42.082Z,4.78
2023-04-21T19:58:09.134Z,5.70
2023-04-21T20:00:36.652Z,3.70
2023-04-21T20:03:06.432Z,7.13
2023-04-21T20:05:33.768Z,3.40
2023-04-21T20:08:02.818Z,3.65
2023-04-21T20:10:30.304Z,7.50
2023-04-21T20:12:56.930Z,5.70
2023-04-21T20:15:23.575Z,3.78
2023-04-21T20:17:50.330Z,7.03
2023-04-21T20:20:17.455Z,5.60
2023-04-21T20:22:44.211Z,6.13
2023-04-21T20:25:10.900Z,5.55
2023-04-21T20:27:37.481Z,5.63
2023-04-21T20:30:04.407Z,10.77
2023-04-21T20:32:30.950Z,6.97
2023-04-21T20:34:59.604Z,8.98
2023-04-21T20:37:26.395Z,14.60
2023-04-21T20:39:53.170Z,6.72
2023-04-21T20:42:22.367Z,6.53
2023-04-21T20:44:49.092Z,6.88
2023-04-21T20:47:16.700Z,8.68
2023-04-21T20:49:43.589Z,10.60
2023-04-21T20:52:10.405Z,10.07
2023-04-21T20:54:38.140Z,10.25
2023-04-21T20:57:07.201Z,9.43
2023-04-21T20:59:33.941Z,9.27
2023-04-21T21:02:00.834Z,15.25
2023-04-21T21:04:27.584Z,12.13
2023-04-21T21:06:54.281Z,12.35
2023-04-21T21:09:20.887Z,16.95
2023-04-21T21:11:47.646Z,12.48
2023-04-21T21:14:14.141Z,12.02
2023-04-21T21:16:40.783Z,11.45
2023-04-21T21:19:07.473Z,7.93
2023-04-21T21:21:34.074Z,10.98
2023-04-21T21:24:00.773Z,14.15
2023-04-21T21:26:27.386Z,9.95
2023-04-21T21:28:54.036Z,14.88
2023-04-21T21:31:20.863Z,14.77
2023-04-21T21:33:47.680Z,8.02
2023-04-21T21:36:14.289Z,10.25
2023-04-21T21:38:41.121Z,7.50
2023-04-21T21:41:10.140Z,8.73
2023-04-21T21:43:37.713Z,8.02
2023-04-21T21:46:06.258Z,11.05
2023-04-21T21:48:33.555Z,10.38
2023-04-21T21:51:00.758Z,10.70
2023-04-21T21:53:27.560Z,13.65
2023-04-21T21:55:54.331Z,13.05
2023-04-21T21:58:21.366Z,11.75
2023-04-21T22:00:51.757Z,14.77
2023-04-21T22:03:22.058Z,10.88
2023-04-21T22:05:48.871Z,13.43
2023-04-21T22:08:15.840Z,11.82
2023-04-21T22:10:43.161Z,11.45
2023-04-21T22:13:10.613Z,11.88
2023-04-21T22:15:38.501Z,11.55
2023-04-21T22:18:05.344Z,10.32
2023-04-21T22:20:32.268Z,10.70
2023-04-21T22:22:59.387Z,14.02
2023-04-21T22:25:28.854Z,8.85
2023-04-21T22:27:58.754Z,10.07
2023-04-21T22:30:25.927Z,14.60
2023-04-21T22:32:52.937Z,12.23
2023-04-21T22:35:19.742Z,10.85
2023-04-21T22:37:46.268Z,8.95
2023-04-21T22:40:13.149Z,13.82
2023-04-21T22:42:39.807Z,13.57
2023-04-21T22:45:07.277Z,9.30
2023-04-21T22:47:34.430Z,13.23
2023-04-21T22:50:02.771Z,11.43
2023-04-21T22:52:29.453Z,11.25
2023-04-21T22:54:56.149Z,16.98
2023-04-21T22:57:22.744Z,15.18
2023-04-21T22:59:49.440Z,13.27
2023-04-21T23:02:16.431Z,14.07
2023-04-21T23:04:43.173Z,15.18
2023-04-21T23:07:09.986Z,13.80
2023-04-21T23:09:36.797Z,15.00
2023-04-21T23:12:05.955Z,18.27
2023-04-21T23:14:32.610Z,19.35
2023-04-21T23:16:59.670Z,17.90
2023-04-21T23:19:26.734Z,21.40
2023-04-21T23:21:53.826Z,15.35
2023-04-21T23:24:20.503Z,15.43
2023-04-21T23:26:47.234Z,18.00
2023-04-21T23:29:13.950Z,23.75
2023-04-21T23:31:40.600Z,27.02
2023-04-21T23:34:07.412Z,29.80
2023-04-21T23:36:34.022Z,23.95
2023-04-21T23:39:00.873Z,25.40
2023-04-21T23:41:27.848Z,25.48
2023-04-21T23:43:54.495Z,27.40
2023-04-21T23:46:21.375Z,32.83
2023-04-21T23:48:47.959Z,30.95
2023-04-21T23:51:15.731Z,29.95
2023-04-21T23:53:42.382Z,28.27
2023-04-21T23:56:09.027Z,34.03
2023-04-21T23:58:35.587Z,38.55
